createdAt,value
2023-02-11T00:00:04.294Z,23.30
2023-02-11T00:04:13.423Z,22.00
2023-02-11T00:20:00.198Z,22.70
2023-02-11T00:23:50.442Z,20.00
2023-02-11T00:27:32.335Z,21.90
2023-02-11T00:31:22.576Z,22.20
2023-02-11T00:35:13.623Z,21.90
2023-02-11T00:39:04.094Z,21.30
2023-02-11T00:42:52.958Z,21.60
2023-02-11T00:46:45.014Z,22.20
2023-02-11T00:50:28.041Z,21.60
2023-02-11T00:54:19.323Z,20.20
2023-02-11T00:58:10.161Z,21.00
2023-02-11T01:01:59.124Z,20.90
2023-02-11T01:05:48.904Z,21.20
2023-02-11T01:09:38.266Z,19.90
2023-02-11T01:13:27.442Z,20.20
2023-02-11T01:17:16.364Z,19.00
2023-02-11T01:21:05.890Z,19.20
2023-02-11T01:24:54.980Z,18.20
2023-02-11T01:28:36.534Z,17.50
2023-02-11T01:32:25.609Z,18.80
2023-02-11T01:36:14.695Z,17.90
2023-02-11T01:40:03.793Z,17.60
2023-02-11T01:43:53.282Z,17.80
2023-02-11T01:47:42.348Z,16.00
2023-02-11T01:51:31.423Z,16.20
2023-02-11T01:55:19.106Z,16.70
2023-02-11T01:59:08.550Z,16.80
2023-02-11T02:02:57.664Z,17.10
2023-02-11T02:06:56.316Z,17.80
2023-02-11T02:10:45.826Z,16.10
2023-02-11T02:14:36.151Z,16.80
2023-02-11T02:30:40.614Z,14.80
2023-02-11T02:46:11.965Z,16.30
2023-02-11T02:50:00.919Z,14.40
2023-02-11T02:54:04.101Z,13.90
2023-02-11T02:57:55.028Z,14.30
2023-02-11T03:02:03.563Z,14.80
2023-02-11T03:18:05.119Z,13.00
2023-02-11T03:21:54.164Z,15.30
2023-02-11T03:25:43.348Z,16.10
2023-02-11T03:29:51.472Z,14.60
2023-02-11T03:41:45.686Z,14.30
2023-02-11T03:45:34.725Z,14.00
2023-02-11T03:49:24.098Z,14.30
2023-02-11T03:53:13.124Z,13.50
2023-02-11T03:57:02.540Z,12.40
2023-02-11T04:00:52.624Z,11.70
2023-02-11T04:04:42.101Z,13.10
2023-02-11T04:08:32.030Z,12.80
2023-02-11T04:12:22.182Z,14.00
2023-02-11T04:20:03.887Z,13.40
2023-02-11T04:23:47.562Z,13.90
2023-02-11T04:27:36.507Z,13.20
2023-02-11T04:31:18.220Z,14.90
2023-02-11T04:35:07.830Z,15.10
2023-02-11T04:38:55.423Z,15.70
2023-02-11T04:42:44.855Z,15.30
2023-02-11T04:46:33.891Z,15.40
2023-02-11T04:50:23.209Z,15.30
2023-02-11T04:54:11.257Z,15.00
2023-02-11T04:58:00.302Z,15.10
2023-02-11T05:01:49.517Z,14.20
2023-02-11T05:05:39.783Z,14.10
2023-02-11T05:09:30.475Z,13.70
2023-02-11T05:25:11.628Z,17.30
2023-02-11T05:29:01.031Z,16.20
2023-02-11T05:32:50.082Z,18.40
2023-02-11T05:36:40.085Z,16.30
2023-02-11T05:40:28.901Z,16.60
2023-02-11T05:44:18.238Z,17.30
2023-02-11T05:48:07.318Z,16.70
2023-02-11T05:51:56.388Z,15.20
2023-02-11T05:55:35.970Z,14.90
2023-02-11T05:58:34.715Z,15.60
2023-02-11T06:02:08.065Z,14.80
2023-02-11T06:05:49.529Z,15.60
2023-02-11T06:09:30.187Z,16.90
2023-02-11T06:13:01.212Z,15.50
2023-02-11T06:16:31.867Z,16.20
2023-02-11T06:20:03.870Z,16.40
2023-02-11T06:23:36.330Z,16.00
2023-02-11T06:27:09.136Z,18.10
2023-02-11T06:30:27.210Z,18.20
2023-02-11T06:34:05.063Z,17.30
2023-02-11T06:41:59.760Z,18.80
2023-02-11T06:45:29.333Z,16.80
2023-02-11T06:49:19.297Z,16.40
2023-02-11T06:52:50.245Z,16.70
2023-02-11T07:46:47.062Z,20.20
2023-02-11T07:50:36.207Z,18.40
2023-02-11T07:54:23.713Z,16.80
2023-02-11T07:58:12.651Z,16.00
2023-02-11T08:01:52.297Z,18.10
2023-02-11T08:05:33.579Z,16.90
2023-02-11T08:09:22.801Z,16.40
2023-02-11T08:13:12.664Z,18.80
2023-02-11T08:17:08.942Z,16.60
2023-02-11T08:20:48.151Z,18.70
2023-02-11T08:24:28.131Z,22.60
2023-02-11T08:28:17.028Z,19.20
2023-02-11T08:32:09.686Z,20.00
2023-02-11T08:35:43.874Z,20.90
2023-02-11T08:39:19.710Z,22.30
2023-02-11T08:42:49.065Z,19.90
2023-02-11T08:46:18.054Z,17.40
2023-02-11T08:50:07.886Z,18.50
2023-02-11T08:53:56.880Z,18.80
2023-02-11T08:57:28.004Z,18.70
2023-02-11T09:01:10.466Z,17.10
2023-02-11T09:05:01.888Z,17.80
2023-02-11T09:08:35.614Z,19.60
2023-02-11T09:11:50.254Z,17.60
2023-02-11T09:15:07.968Z,18.90
2023-02-11T09:18:31.980Z,20.00
2023-02-11T09:22:22.574Z,20.70
2023-02-11T09:26:11.676Z,20.60
2023-02-11T09:30:01.348Z,22.40
2023-02-11T09:33:44.302Z,17.90
2023-02-11T09:37:15.562Z,19.20
2023-02-11T09:41:04.746Z,20.80
2023-02-11T09:45:05.642Z,20.20
2023-02-11T09:48:56.231Z,20.30
2023-02-11T09:52:14.850Z,18.90
2023-02-11T10:11:52.253Z,23.20
2023-02-11T10:15:17.633Z,22.20
2023-02-11T10:18:10.565Z,22.10
2023-02-11T10:21:05.479Z,22.40
2023-02-11T10:23:44.193Z,22.70
2023-02-11T10:26:26.967Z,26.70
2023-02-11T10:30:06.599Z,23.30
2023-02-11T10:33:50.796Z,22.50
2023-02-11T10:37:21.645Z,20.20
2023-02-11T10:40:40.006Z,21.20
2023-02-11T10:43:16.843Z,20.10
2023-02-11T10:46:35.697Z,20.30
2023-02-11T10:50:16.601Z,22.50
2023-02-11T10:53:41.384Z,23.10
2023-02-11T11:01:24.798Z,21.40
2023-02-11T11:24:09.973Z,20.90
2023-02-11T11:27:03.686Z,21.00
2023-02-11T11:30:55.894Z,20.70
2023-02-11T11:35:01.476Z,21.30
2023-02-11T12:10:58.960Z,21.70
2023-02-11T12:14:52.905Z,21.60
2023-02-11T12:18:49.889Z,23.50
2023-02-11T12:22:57.566Z,21.90
2023-02-11T12:26:43.084Z,23.10
2023-02-11T12:46:05.919Z,23.10
2023-02-11T12:50:13.135Z,23.00
2023-02-11T12:54:11.627Z,23.50
2023-02-11T12:58:03.278Z,24.90
2023-02-11T13:09:42.881Z,22.70
2023-02-11T13:13:37.816Z,25.90
2023-02-11T13:17:33.990Z,26.50
2023-02-11T13:21:38.190Z,24.50
2023-02-11T13:25:31.391Z,24.80
2023-02-11T13:28:41.514Z,23.00
2023-02-11T13:31:50.185Z,23.90
2023-02-11T13:35:44.628Z,23.10
2023-02-11T13:39:20.049Z,20.60
2023-02-11T14:01:54.461Z,22.40
2023-02-11T14:05:42.839Z,22.60
2023-02-11T14:09:50.278Z,21.30
2023-02-11T14:24:53.557Z,25.20
2023-02-11T14:28:41.399Z,26.10
2023-02-11T14:32:08.922Z,27.40
2023-02-11T14:40:02.982Z,23.30
2023-02-11T14:43:51.972Z,24.30
2023-02-11T14:47:16.417Z,27.30
2023-02-11T14:50:31.264Z,26.00
2023-02-11T14:58:03.718Z,27.10
2023-02-11T15:01:48.836Z,24.80
2023-02-11T15:28:24.985Z,27.60
2023-02-11T15:35:30.334Z,26.70
2023-02-11T15:39:05.178Z,25.80
2023-02-11T15:42:52.043Z,26.10
2023-02-11T15:46:45.421Z,26.30
2023-02-11T15:50:15.320Z,27.60
2023-02-11T15:53:52.941Z,31.50
2023-02-11T16:09:36.344Z,33.40
2023-02-11T16:13:34.879Z,31.90
2023-02-11T16:25:34.439Z,35.20
2023-02-11T16:29:24.064Z,37.40
2023-02-11T16:33:19.029Z,36.80
2023-02-11T16:37:11.089Z,36.90
2023-02-11T16:41:03.062Z,38.00
2023-02-11T16:44:51.708Z,38.60
2023-02-11T16:48:40.248Z,36.10
2023-02-11T16:52:31.196Z,37.10
2023-02-11T16:56:21.588Z,37.20
2023-02-11T17:23:27.096Z,44.90
2023-02-11T17:27:16.398Z,41.90
2023-02-11T17:31:09.421Z,40.90
2023-02-11T17:34:58.838Z,42.80
2023-02-11T17:38:47.998Z,45.40
2023-02-11T17:42:35.831Z,43.60
2023-02-11T17:46:24.816Z,43.50
2023-02-11T17:50:13.759Z,45.90
2023-02-11T17:54:03.070Z,42.40
2023-02-11T17:57:52.127Z,42.90
2023-02-11T18:01:41.570Z,43.10
2023-02-11T18:05:30.576Z,42.70
2023-02-11T18:09:19.485Z,45.80
2023-02-11T18:13:08.896Z,40.20
2023-02-11T18:16:58.451Z,44.60
2023-02-11T18:20:47.967Z,48.20
2023-02-11T18:24:35.677Z,44.40
2023-02-11T18:28:24.676Z,46.20
2023-02-11T18:32:13.966Z,46.80
2023-02-11T18:36:03.123Z,43.40
2023-02-11T18:39:52.217Z,44.80
2023-02-11T18:43:41.312Z,45.90
2023-02-11T18:47:30.380Z,46.80
2023-02-11T18:51:14.636Z,42.30
2023-02-11T18:55:03.719Z,43.00
2023-02-11T18:58:52.683Z,41.50
2023-02-11T19:03:11.700Z,44.00
2023-02-11T19:07:03.750Z,47.30
2023-02-11T19:10:52.959Z,45.40
2023-02-11T19:14:42.137Z,43.30
2023-02-11T19:18:31.321Z,40.80
2023-02-11T19:22:20.384Z,41.80
2023-02-11T19:26:09.771Z,38.60
2023-02-11T19:29:58.793Z,39.60
2023-02-11T19:33:47.933Z,35.60
2023-02-11T19:37:37.269Z,38.70
2023-02-11T19:41:26.614Z,37.40
2023-02-11T19:45:16.036Z,35.90
2023-02-11T19:49:05.372Z,37.00
2023-02-11T19:52:54.500Z,34.30
2023-02-11T19:56:43.954Z,37.30
2023-02-11T20:00:33.029Z,35.80
2023-02-11T20:04:22.129Z,34.80
2023-02-11T20:08:11.399Z,35.60
2023-02-11T20:12:06.578Z,34.40
2023-02-11T20:15:56.993Z,33.60
2023-02-11T20:19:38.059Z,36.90
2023-02-11T20:23:27.423Z,37.60
2023-02-11T20:35:56.441Z,41.10
2023-02-11T20:39:36.766Z,37.50
2023-02-11T20:43:24.831Z,38.00
2023-02-11T20:47:05.489Z,39.20
2023-02-11T20:50:53.070Z,39.90
2023-02-11T20:54:40.811Z,36.00
2023-02-11T21:06:51.420Z,37.60
2023-02-11T21:10:39.103Z,36.00
2023-02-11T21:14:27.248Z,35.30
2023-02-11T21:18:15.804Z,35.80
2023-02-11T21:22:04.539Z,37.30
2023-02-11T21:37:42.113Z,50.70
2023-02-11T21:41:31.116Z,65.40
2023-02-11T21:45:20.415Z,42.50
2023-02-11T21:49:09.743Z,46.40
2023-02-11T21:53:00.247Z,52.90
2023-02-11T21:56:48.998Z,54.30
2023-02-11T22:00:37.093Z,58.70
2023-02-11T22:04:55.581Z,53.70
2023-02-11T22:08:44.585Z,38.60
2023-02-11T22:12:33.812Z,38.00
2023-02-11T22:16:15.859Z,38.70
2023-02-11T22:20:07.068Z,38.40
2023-02-11T22:23:58.300Z,35.60
2023-02-11T22:31:38.889Z,43.60
2023-02-11T22:35:31.747Z,39.30
2023-02-11T22:47:24.471Z,34.60
2023-02-11T22:51:13.508Z,33.40
2023-02-11T22:55:02.880Z,34.80
2023-02-11T22:58:52.023Z,30.40
2023-02-11T23:02:41.184Z,31.90
2023-02-11T23:06:23.594Z,34.10
2023-02-11T23:10:05.323Z,33.80
2023-02-11T23:13:54.344Z,34.40
2023-02-11T23:17:44.034Z,33.70
2023-02-11T23:21:32.995Z,33.40
2023-02-11T23:44:38.312Z,35.30
2023-02-11T23:48:27.591Z,35.80
2023-02-11T23:52:16.614Z,35.10
2023-02-11T23:56:05.786Z,36.00
2023-02-11T23:59:54.944Z,35.50
